Odanah, WI (54861)

4:56 AM CDT on July 23, 2016 (GMT -0500)
Hodgkins Park | | Change Station
Active Advisory: Flash Flood Watch

Elev 659 ft 46.59 °N, 90.87 °W | Updated 12 minutes ago

Clear
Clear
63.5 °F
Feels Like 63.5 °F
N
0.0
Wind Variable Wind from SSW

Today
High -- | Low -- °F
--% Chance of Precip.
Yesterday
High -- | Low -- °F
Precip. -- in
Pressure 30.00 in
Visibility 10.0 miles
Clouds Clear
Dew Point 61 °F
Humidity 92%
Rainfall 0.00 in
Snow Depth Not available.
5:33 AM 8:44 PM
Waning Gibbous, 86% visible
METAR KASX 230953Z AUTO 23003KT 10SM CLR 15/15 A3001 RMK AO2 SLP159 T01500150
Pressure 30.00 in
Visibility 10.0 miles
Clouds Clear
Dew Point 61 °F
Humidity 92%
Rainfall 0.00 in
Snow Depth Not available.
5:33 AM 8:44 PM
Waning Gibbous, 86% visible
METAR KASX 230953Z AUTO 23003KT 10SM CLR 15/15 A3001 RMK AO2 SLP159 T01500150

10-Day Weather Forecast

Almanac

Astronomy

Jul. 23, 2016 Rise Set
Actual Time
Civil Twilight
Nautical Twilight
Astronomical Twilight
Moon
Length of Visible Light
Length of Day
Tomorrow will be .
, % of the Moon is Illuminated

Today's Extremes

State Highs State Lows

Community

WunderPhotos

Upload Photos

1,926,790 photos uploaded!

WunderBlog® & News

Nearby

Air Quality

  Air Quality AQ Index Pollutant
Not available.

Snow Depth

Station Depth Elevation

Earthquake Activity

City Distance Mag. Time & Date
Minimum magnitude displayed is 2.5.

Coastal Water Temperatures

Place Temperature

Stations

Nearby Weather Stations

Station Location Temp. Windchill Dew Point Humidity Wind Precip. Elev Updated Type
                   

Watches & Warnings

Flash Flood Watch
Issued: 4:13 AM CDT Jul. 23, 2016 – National Weather Service

... Flash Flood Watch remains in effect from noon CDT today
through Sunday morning...

The Flash Flood Watch continues for

* portions of Minnesota and Wisconsin... including the following
areas... in Minnesota... Carlton/south St. Louis... Crow Wing...
North Cass... northern Aitkin... Pine... south Aitkin... south
Cass and South Itasca. In Wisconsin... Ashland... Bayfield...
Burnett... Douglas... Iron... price... Sawyer and Washburn.

* From noon CDT today through early Sunday morning

* widespread thunderstorms and heavy rainfall are possible
beginning this afternoon and continuing through early Sunday
morning along a warm front across central Minnesota.

Precautionary/preparedness actions...

A Flash Flood Watch means that conditions may develop that lead
to flash flooding. Flash flooding is a very dangerous situation.

Monitor the latest forecasts and be prepared to take action
should flash flood warnings be issued.